Aérodrome :
LOGIN :

S'inscrire | Disclaimer

   EN    FR    IT 

 










Légende :    VFR   VFR Marginal   IFR   IFR Intensif   IFR Très Intensif
Visi : 
Plafond : 
>= 8 km
>= 3000ft
5 à 8 km
1000 à 3000 ft
1500m à 5 km
500 à 1000 ft
800 à 1500m
200 à 500 ft
< 800m
< 200 ft
Symboles :   Orages  Brouillard  Fortes neiges  Fortes précipitations  Vent > 20 kt
SIGMETs :   Divers  Orages  Givrage  Turbulence  Onde Orograph.  Cendres Volcan.







- Altitude de l'aérodrome : 171 ft
- Code IATA : EGC
- Voir les cartes d'approche


LFBE - Bergerac

DERNIER METAR :
  • 210430Z AUTO 27009KT 6000 -RA OVC005 12/12 Q1020

METARs EXPIRÉS :
  • 210400Z AUTO 28012KT 7000 -RA BKN007 OVC012 12/12 Q1020
  • 210330Z AUTO 28011KT 9999 -DZ BKN006 OVC010 12/12 Q1020
  • 210300Z AUTO 28012KT 9999 -DZ BKN007 OVC011 12/12 Q1020
  • 210230Z AUTO 28014KT 6000 -RA OVC006 13/12 Q1020
  • 210200Z AUTO 28014KT 7000 DZ OVC006 13/12 Q1019

TAF TAF LFBE
Valide du 20 à 18h jusqu'au 21 à 18h UTC


201700Z 2018/2118 26015G25KT 9999 OVC011
TEMPO 2018/2108 27020G35KT 3000 RA OVC003
FM210800 27010KT 9999 OVC005
TEMPO 2108/2118 27015G25KT 2000 RADZ OVC002
Pas de NOTAMs connus pour ce terrain.
1 SIGMET publié pour la FIR Bordeaux (LFBB) :
 
Onde orographique forte
LFBB SIGMET 1 VALID 210300/210700 LFPW
LFBB BORDEAUX FIR/UIR SEV MTW FCST WI N4245 E00230 - N4215 E00230 - N4245 E00000 - N4300 E00000 - N4245 E00230 SFC/FL350 STNR NC=



MET'MAP, la Météo Aéronautique d'un coup d'oeil ! - Copyright ORBIFLY Décembre 2007 - Disclaimer

ORBIFLY MET'MAP TEAM :

Programmation & Développement : Alexandra Zaïnal
Conception & Développement : Baudouin d'Aumeries
Co-Programmation & Développement : Marc-Olivier Méhu
Soutien technique & logistique : Manuel Goepfert

Contact : metmap@orbifly.com




SOURCES & CREDITS :

   NOAA